sensor_id;sensor_type;location;lat;lon;timestamp;temperature;humidity
48994;DHT22;34804;49.214;12.276;2022-10-15T00:01:21;13.40;94.70
48994;DHT22;34804;49.214;12.276;2022-10-15T00:03:49;13.30;94.70
48994;DHT22;34804;49.214;12.276;2022-10-15T00:06:18;13.30;94.70
48994;DHT22;34804;49.214;12.276;2022-10-15T00:08:45;13.30;94.80
48994;DHT22;34804;49.214;12.276;2022-10-15T00:11:15;13.30;94.70
48994;DHT22;34804;49.214;12.276;2022-10-15T00:13:43;13.30;94.70
48994;DHT22;34804;49.214;12.276;2022-10-15T00:16:12;13.30;94.70
48994;DHT22;34804;49.214;12.276;2022-10-15T00:18:40;13.30;94.50
48994;DHT22;34804;49.214;12.276;2022-10-15T00:21:08;13.30;94.60
48994;DHT22;34804;49.214;12.276;2022-10-15T00:23:36;13.30;94.50
48994;DHT22;34804;49.214;12.276;2022-10-15T00:26:11;13.30;94.50
48994;DHT22;34804;49.214;12.276;2022-10-15T00:28:38;13.30;94.60
48994;DHT22;34804;49.214;12.276;2022-10-15T00:31:11;13.30;94.70
48994;DHT22;34804;49.214;12.276;2022-10-15T00:33:38;13.20;94.70
48994;DHT22;34804;49.214;12.276;2022-10-15T00:36:12;13.20;94.80
48994;DHT22;34804;49.214;12.276;2022-10-15T00:38:39;13.20;94.90
48994;DHT22;34804;49.214;12.276;2022-10-15T00:41:09;13.10;95.00
48994;DHT22;34804;49.214;12.276;2022-10-15T00:48:55;13.10;95.10
48994;DHT22;34804;49.214;12.276;2022-10-15T00:51:27;13.10;95.10
48994;DHT22;34804;49.214;12.276;2022-10-15T00:53:55;13.10;95.10
48994;DHT22;34804;49.214;12.276;2022-10-15T00:56:23;13.20;95.00
48994;DHT22;34804;49.214;12.276;2022-10-15T00:58:53;13.10;94.90
48994;DHT22;34804;49.214;12.276;2022-10-15T01:01:21;13.20;94.90
48994;DHT22;34804;49.214;12.276;2022-10-15T01:03:48;13.20;94.70
48994;DHT22;34804;49.214;12.276;2022-10-15T01:06:16;13.20;94.70
48994;DHT22;34804;49.214;12.276;2022-10-15T01:08:43;13.20;94.80
48994;DHT22;34804;49.214;12.276;2022-10-15T01:25:22;13.20;94.90
48994;DHT22;34804;49.214;12.276;2022-10-15T01:28:17;13.20;94.90
48994;DHT22;34804;49.214;12.276;2022-10-15T01:30:57;13.20;94.90
48994;DHT22;34804;49.214;12.276;2022-10-15T01:33:27;13.10;95.00
48994;DHT22;34804;49.214;12.276;2022-10-15T01:36:36;13.20;94.90
48994;DHT22;34804;49.214;12.276;2022-10-15T01:42:01;13.20;94.70
48994;DHT22;34804;49.214;12.276;2022-10-15T01:44:43;13.20;94.70
48994;DHT22;34804;49.214;12.276;2022-10-15T01:47:21;13.20;94.70
48994;DHT22;34804;49.214;12.276;2022-10-15T01:49:52;13.20;94.70
48994;DHT22;34804;49.214;12.276;2022-10-15T01:52:24;13.20;94.80
48994;DHT22;34804;49.214;12.276;2022-10-15T01:54:52;13.30;94.80
48994;DHT22;34804;49.214;12.276;2022-10-15T01:57:22;13.20;94.90
48994;DHT22;34804;49.214;12.276;2022-10-15T01:59:51;13.20;94.90
48994;DHT22;34804;49.214;12.276;2022-10-15T02:02:19;13.30;95.00
48994;DHT22;34804;49.214;12.276;2022-10-15T02:04:47;13.30;94.90
48994;DHT22;34804;49.214;12.276;2022-10-15T02:12:51;13.20;95.00
48994;DHT22;34804;49.214;12.276;2022-10-15T02:15:34;13.20;95.10
48994;DHT22;34804;49.214;12.276;2022-10-15T02:23:55;13.20;95.00
48994;DHT22;34804;49.214;12.276;2022-10-15T02:26:05;13.20;94.90
48994;DHT22;34804;49.214;12.276;2022-10-15T02:28:36;13.30;94.70
48994;DHT22;34804;49.214;12.276;2022-10-15T02:31:04;13.30;94.70
48994;DHT22;34804;49.214;12.276;2022-10-15T02:33:32;13.20;94.70
48994;DHT22;34804;49.214;12.276;2022-10-15T02:36:00;13.30;94.60
48994;DHT22;34804;49.214;12.276;2022-10-15T02:38:28;13.30;94.50
48994;DHT22;34804;49.214;12.276;2022-10-15T02:40:57;13.30;94.40
48994;DHT22;34804;49.214;12.276;2022-10-15T02:43:24;13.30;94.40
48994;DHT22;34804;49.214;12.276;2022-10-15T02:45:50;13.30;94.50
48994;DHT22;34804;49.214;12.276;2022-10-15T02:48:17;13.30;94.60
48994;DHT22;34804;49.214;12.276;2022-10-15T02:50:44;13.30;94.70
48994;DHT22;34804;49.214;12.276;2022-10-15T02:53:11;13.20;94.70
48994;DHT22;34804;49.214;12.276;2022-10-15T02:55:38;13.30;94.80
48994;DHT22;34804;49.214;12.276;2022-10-15T02:58:04;13.20;94.90
48994;DHT22;34804;49.214;12.276;2022-10-15T03:00:31;13.20;95.10
48994;DHT22;34804;49.214;12.276;2022-10-15T03:02:58;13.20;95.10
48994;DHT22;34804;49.214;12.276;2022-10-15T03:05:25;13.10;95.20
48994;DHT22;34804;49.214;12.276;2022-10-15T03:07:58;13.10;95.30
48994;DHT22;34804;49.214;12.276;2022-10-15T03:10:25;13.10;95.30
48994;DHT22;34804;49.214;12.276;2022-10-15T03:12:52;13.10;95.30
48994;DHT22;34804;49.214;12.276;2022-10-15T03:15:19;13.20;95.20
48994;DHT22;34804;49.214;12.276;2022-10-15T03:17:46;13.20;95.20
48994;DHT22;34804;49.214;12.276;2022-10-15T03:20:13;13.20;95.20
48994;DHT22;34804;49.214;12.276;2022-10-15T03:22:39;13.20;95.20
48994;DHT22;34804;49.214;12.276;2022-10-15T03:25:06;13.20;95.20
48994;DHT22;34804;49.214;12.276;2022-10-15T03:27:33;13.20;95.10
48994;DHT22;34804;49.214;12.276;2022-10-15T03:30:00;13.20;95.20
48994;DHT22;34804;49.214;12.276;2022-10-15T03:32:27;13.30;95.10
48994;DHT22;34804;49.214;12.276;2022-10-15T03:34:53;13.20;95.10
48994;DHT22;34804;49.214;12.276;2022-10-15T03:37:20;13.20;95.00
48994;DHT22;34804;49.214;12.276;2022-10-15T03:39:47;13.20;95.00
48994;DHT22;34804;49.214;12.276;2022-10-15T03:42:14;13.20;95.00
48994;DHT22;34804;49.214;12.276;2022-10-15T03:44:41;13.20;95.10
48994;DHT22;34804;49.214;12.276;2022-10-15T03:47:08;13.20;95.10
48994;DHT22;34804;49.214;12.276;2022-10-15T03:49:34;13.20;95.20
48994;DHT22;34804;49.214;12.276;2022-10-15T03:52:01;13.10;95.20
48994;DHT22;34804;49.214;12.276;2022-10-15T03:54:28;13.20;95.20
48994;DHT22;34804;49.214;12.276;2022-10-15T03:56:55;13.20;95.20
48994;DHT22;34804;49.214;12.276;2022-10-15T03:59:22;13.20;95.20
48994;DHT22;34804;49.214;12.276;2022-10-15T04:01:49;13.10;95.20
48994;DHT22;34804;49.214;12.276;2022-10-15T04:04:15;13.10;95.20
48994;DHT22;34804;49.214;12.276;2022-10-15T04:06:42;13.20;95.20
48994;DHT22;34804;49.214;12.276;2022-10-15T04:09:13;13.20;95.10
48994;DHT22;34804;49.214;12.276;2022-10-15T04:11:40;13.20;95.20
48994;DHT22;34804;49.214;12.276;2022-10-15T04:14:07;13.20;95.20
48994;DHT22;34804;49.214;12.276;2022-10-15T04:16:34;13.20;95.20
48994;DHT22;34804;49.214;12.276;2022-10-15T04:19:01;13.20;95.20
48994;DHT22;34804;49.214;12.276;2022-10-15T04:21:30;13.20;95.20
48994;DHT22;34804;49.214;12.276;2022-10-15T04:23:57;13.20;95.20
48994;DHT22;34804;49.214;12.276;2022-10-15T04:26:24;13.20;95.20
48994;DHT22;34804;49.214;12.276;2022-10-15T04:28:50;13.20;95.20
48994;DHT22;34804;49.214;12.276;2022-10-15T04:31:17;13.20;95.20
48994;DHT22;34804;49.214;12.276;2022-10-15T04:33:47;13.20;95.20
48994;DHT22;34804;49.214;12.276;2022-10-15T04:36:14;13.20;95.20
48994;DHT22;34804;49.214;12.276;2022-10-15T04:38:46;13.20;95.20
48994;DHT22;34804;49.214;12.276;2022-10-15T04:41:13;13.20;95.30
48994;DHT22;34804;49.214;12.276;2022-10-15T04:43:40;13.20;95.20
48994;DHT22;34804;49.214;12.276;2022-10-15T04:46:07;13.20;95.20
48994;DHT22;34804;49.214;12.276;2022-10-15T04:48:36;13.20;95.20
48994;DHT22;34804;49.214;12.276;2022-10-15T04:51:11;13.20;95.20
48994;DHT22;34804;49.214;12.276;2022-10-15T04:53:39;13.30;95.20
48994;DHT22;34804;49.214;12.276;2022-10-15T04:56:09;13.30;95.10
48994;DHT22;34804;49.214;12.276;2022-10-15T04:58:38;13.20;95.20
48994;DHT22;34804;49.214;12.276;2022-10-15T05:01:06;13.30;95.20
48994;DHT22;34804;49.214;12.276;2022-10-15T05:03:34;13.30;95.20
48994;DHT22;34804;49.214;12.276;2022-10-15T05:06:09;13.30;95.20
48994;DHT22;34804;49.214;12.276;2022-10-15T05:08:37;13.30;95.20
48994;DHT22;34804;49.214;12.276;2022-10-15T05:11:07;13.30;95.20
48994;DHT22;34804;49.214;12.276;2022-10-15T05:13:34;13.30;95.20
48994;DHT22;34804;49.214;12.276;2022-10-15T05:16:12;13.30;95.20
48994;DHT22;34804;49.214;12.276;2022-10-15T05:18:40;13.30;95.30
48994;DHT22;34804;49.214;12.276;2022-10-15T05:21:08;13.30;95.30
48994;DHT22;34804;49.214;12.276;2022-10-15T05:23:36;13.30;95.30
48994;DHT22;34804;49.214;12.276;2022-10-15T05:26:05;13.20;95.30
48994;DHT22;34804;49.214;12.276;2022-10-15T05:28:32;13.20;95.30
48994;DHT22;34804;49.214;12.276;2022-10-15T05:31:07;13.30;95.40
48994;DHT22;34804;49.214;12.276;2022-10-15T05:33:35;13.30;95.50
48994;DHT22;34804;49.214;12.276;2022-10-15T05:36:10;13.30;95.40
48994;DHT22;34804;49.214;12.276;2022-10-15T05:38:37;13.30;95.40
48994;DHT22;34804;49.214;12.276;2022-10-15T05:41:04;13.30;95.40
48994;DHT22;34804;49.214;12.276;2022-10-15T05:43:30;13.30;95.30
48994;DHT22;34804;49.214;12.276;2022-10-15T05:46:00;13.30;95.40
48994;DHT22;34804;49.214;12.276;2022-10-15T05:48:27;13.30;95.40
48994;DHT22;34804;49.214;12.276;2022-10-15T05:51:02;13.30;95.40
48994;DHT22;34804;49.214;12.276;2022-10-15T05:53:29;13.20;95.40
48994;DHT22;34804;49.214;12.276;2022-10-15T05:55:57;13.30;95.40
48994;DHT22;34804;49.214;12.276;2022-10-15T05:58:27;13.30;95.40
48994;DHT22;34804;49.214;12.276;2022-10-15T06:01:03;13.30;95.50
48994;DHT22;34804;49.214;12.276;2022-10-15T06:03:30;13.30;95.50
48994;DHT22;34804;49.214;12.276;2022-10-15T06:05:57;13.30;95.50
48994;DHT22;34804;49.214;12.276;2022-10-15T06:08:24;13.30;95.50
48994;DHT22;34804;49.214;12.276;2022-10-15T06:10:51;13.30;95.50
48994;DHT22;34804;49.214;12.276;2022-10-15T06:13:18;13.30;95.60
48994;DHT22;34804;49.214;12.276;2022-10-15T06:15:45;13.30;95.60
48994;DHT22;34804;49.214;12.276;2022-10-15T06:18:12;13.30;95.60
48994;DHT22;34804;49.214;12.276;2022-10-15T06:20:42;13.30;95.70
48994;DHT22;34804;49.214;12.276;2022-10-15T06:23:10;13.30;95.70
48994;DHT22;34804;49.214;12.276;2022-10-15T06:25:37;13.30;95.70
48994;DHT22;34804;49.214;12.276;2022-10-15T06:28:05;13.20;95.80
48994;DHT22;34804;49.214;12.276;2022-10-15T06:30:32;13.30;95.90
48994;DHT22;34804;49.214;12.276;2022-10-15T06:32:59;13.30;95.90
48994;DHT22;34804;49.214;12.276;2022-10-15T06:35:26;13.30;95.90
48994;DHT22;34804;49.214;12.276;2022-10-15T06:37:59;13.30;95.90
48994;DHT22;34804;49.214;12.276;2022-10-15T06:40:29;13.30;95.90
48994;DHT22;34804;49.214;12.276;2022-10-15T06:43:08;13.30;96.00
48994;DHT22;34804;49.214;12.276;2022-10-15T06:45:40;13.30;96.00
48994;DHT22;34804;49.214;12.276;2022-10-15T06:48:10;13.40;96.00
48994;DHT22;34804;49.214;12.276;2022-10-15T06:50:37;13.40;96.00
48994;DHT22;34804;49.214;12.276;2022-10-15T06:53:05;13.40;96.00
48994;DHT22;34804;49.214;12.276;2022-10-15T06:55:32;13.40;95.90
48994;DHT22;34804;49.214;12.276;2022-10-15T06:58:06;13.40;95.90
48994;DHT22;34804;49.214;12.276;2022-10-15T07:00:33;13.40;95.90
48994;DHT22;34804;49.214;12.276;2022-10-15T07:03:05;13.40;95.90
48994;DHT22;34804;49.214;12.276;2022-10-15T07:05:33;13.40;96.00
48994;DHT22;34804;49.214;12.276;2022-10-15T07:08:00;13.40;95.90
48994;DHT22;34804;49.214;12.276;2022-10-15T07:10:28;13.50;96.00
48994;DHT22;34804;49.214;12.276;2022-10-15T07:12:58;13.60;96.00
48994;DHT22;34804;49.214;12.276;2022-10-15T07:15:27;13.60;95.90
48994;DHT22;34804;49.214;12.276;2022-10-15T07:17:55;13.70;95.90
48994;DHT22;34804;49.214;12.276;2022-10-15T07:20:23;13.80;95.80
48994;DHT22;34804;49.214;12.276;2022-10-15T07:23:00;13.80;95.80
48994;DHT22;34804;49.214;12.276;2022-10-15T07:25:28;13.80;95.80
48994;DHT22;34804;49.214;12.276;2022-10-15T07:27:57;13.80;95.80
48994;DHT22;34804;49.214;12.276;2022-10-15T07:30:25;13.80;95.60
48994;DHT22;34804;49.214;12.276;2022-10-15T07:32:56;13.90;95.60
48994;DHT22;34804;49.214;12.276;2022-10-15T07:35:25;13.90;95.60
48994;DHT22;34804;49.214;12.276;2022-10-15T07:37:53;13.90;95.50
48994;DHT22;34804;49.214;12.276;2022-10-15T07:40:21;13.90;95.40
48994;DHT22;34804;49.214;12.276;2022-10-15T07:42:55;14.00;95.40
48994;DHT22;34804;49.214;12.276;2022-10-15T07:45:23;14.00;95.30
48994;DHT22;34804;49.214;12.276;2022-10-15T07:47:52;14.00;95.30
48994;DHT22;34804;49.214;12.276;2022-10-15T07:50:20;14.10;95.30
48994;DHT22;34804;49.214;12.276;2022-10-15T07:52:47;14.10;95.40
48994;DHT22;34804;49.214;12.276;2022-10-15T07:55:13;14.10;95.50
48994;DHT22;34804;49.214;12.276;2022-10-15T07:57:40;14.20;95.40
48994;DHT22;34804;49.214;12.276;2022-10-15T08:00:07;14.10;95.40
48994;DHT22;34804;49.214;12.276;2022-10-15T08:02:34;14.10;95.40
48994;DHT22;34804;49.214;12.276;2022-10-15T08:05:01;14.10;95.50
48994;DHT22;34804;49.214;12.276;2022-10-15T08:07:28;14.10;95.60
48994;DHT22;34804;49.214;12.276;2022-10-15T08:09:55;14.20;95.60
48994;DHT22;34804;49.214;12.276;2022-10-15T08:12:21;14.20;95.60
48994;DHT22;34804;49.214;12.276;2022-10-15T08:14:49;14.30;95.60
48994;DHT22;34804;49.214;12.276;2022-10-15T08:17:15;14.30;95.70
48994;DHT22;34804;49.214;12.276;2022-10-15T08:19:42;14.30;95.70
48994;DHT22;34804;49.214;12.276;2022-10-15T08:22:09;14.40;95.70
48994;DHT22;34804;49.214;12.276;2022-10-15T08:24:36;14.40;95.70
48994;DHT22;34804;49.214;12.276;2022-10-15T08:27:03;14.40;95.60
48994;DHT22;34804;49.214;12.276;2022-10-15T08:29:30;14.40;95.80
48994;DHT22;34804;49.214;12.276;2022-10-15T08:31:56;14.50;95.60
48994;DHT22;34804;49.214;12.276;2022-10-15T08:34:23;14.50;95.70
48994;DHT22;34804;49.214;12.276;2022-10-15T08:36:50;14.50;95.70
48994;DHT22;34804;49.214;12.276;2022-10-15T08:39:17;14.50;95.60
48994;DHT22;34804;49.214;12.276;2022-10-15T08:41:51;14.50;95.60
48994;DHT22;34804;49.214;12.276;2022-10-15T08:44:30;14.50;95.70
48994;DHT22;34804;49.214;12.276;2022-10-15T08:47:06;14.60;95.70
48994;DHT22;34804;49.214;12.276;2022-10-15T08:49:54;14.60;95.80
48994;DHT22;34804;49.214;12.276;2022-10-15T08:52:42;14.60;95.80
48994;DHT22;34804;49.214;12.276;2022-10-15T08:55:12;14.70;95.80
48994;DHT22;34804;49.214;12.276;2022-10-15T09:00:33;14.80;95.70
48994;DHT22;34804;49.214;12.276;2022-10-15T09:10:52;15.20;95.40
48994;DHT22;34804;49.214;12.276;2022-10-15T09:16:00;15.30;95.10
48994;DHT22;34804;49.214;12.276;2022-10-15T09:18:30;15.40;94.90
48994;DHT22;34804;49.214;12.276;2022-10-15T09:20:59;15.50;94.60
48994;DHT22;34804;49.214;12.276;2022-10-15T09:23:27;15.50;94.50
48994;DHT22;34804;49.214;12.276;2022-10-15T09:26:08;15.60;94.50
48994;DHT22;34804;49.214;12.276;2022-10-15T09:31:15;15.80;94.10
48994;DHT22;34804;49.214;12.276;2022-10-15T09:33:51;15.80;93.60
48994;DHT22;34804;49.214;12.276;2022-10-15T09:39:13;16.00;93.80
48994;DHT22;34804;49.214;12.276;2022-10-15T09:42:01;16.10;93.40
48994;DHT22;34804;49.214;12.276;2022-10-15T09:44:37;16.00;93.30
48994;DHT22;34804;49.214;12.276;2022-10-15T09:47:25;16.10;93.90
48994;DHT22;34804;49.214;12.276;2022-10-15T09:49:52;16.00;93.20
48994;DHT22;34804;49.214;12.276;2022-10-15T09:57:25;16.00;93.30
48994;DHT22;34804;49.214;12.276;2022-10-15T09:59:54;16.00;92.90
48994;DHT22;34804;49.214;12.276;2022-10-15T10:02:23;16.10;93.60
48994;DHT22;34804;49.214;12.276;2022-10-15T10:04:51;16.00;93.10
48994;DHT22;34804;49.214;12.276;2022-10-15T10:07:36;16.10;93.10
48994;DHT22;34804;49.214;12.276;2022-10-15T10:12:47;16.10;92.60
48994;DHT22;34804;49.214;12.276;2022-10-15T10:15:36;16.10;92.80
48994;DHT22;34804;49.214;12.276;2022-10-15T10:18:05;16.20;92.60
48994;DHT22;34804;49.214;12.276;2022-10-15T10:21:34;16.20;92.00
48994;DHT22;34804;49.214;12.276;2022-10-15T10:23:41;16.20;93.10
48994;DHT22;34804;49.214;12.276;2022-10-15T10:26:10;16.20;92.70
48994;DHT22;34804;49.214;12.276;2022-10-15T10:29:04;16.20;92.70
48994;DHT22;34804;49.214;12.276;2022-10-15T10:31:52;16.30;93.20
48994;DHT22;34804;49.214;12.276;2022-10-15T10:34:30;16.20;93.00
48994;DHT22;34804;49.214;12.276;2022-10-15T10:37:02;16.30;93.00
48994;DHT22;34804;49.214;12.276;2022-10-15T10:39:31;16.30;93.00
48994;DHT22;34804;49.214;12.276;2022-10-15T10:44:38;16.30;93.30
48994;DHT22;34804;49.214;12.276;2022-10-15T10:47:24;16.30;93.30
48994;DHT22;34804;49.214;12.276;2022-10-15T10:49:56;16.40;92.40
48994;DHT22;34804;49.214;12.276;2022-10-15T10:52:33;16.40;92.00
48994;DHT22;34804;49.214;12.276;2022-10-15T10:55:16;16.60;92.00
48994;DHT22;34804;49.214;12.276;2022-10-15T10:57:55;16.70;92.50
48994;DHT22;34804;49.214;12.276;2022-10-15T11:00:38;16.80;91.60
48994;DHT22;34804;49.214;12.276;2022-10-15T11:03:27;16.80;91.10
48994;DHT22;34804;49.214;12.276;2022-10-15T11:06:15;16.90;91.10
48994;DHT22;34804;49.214;12.276;2022-10-15T11:14:53;17.30;90.70
48994;DHT22;34804;49.214;12.276;2022-10-15T11:20:13;17.70;88.50
48994;DHT22;34804;49.214;12.276;2022-10-15T11:26:09;18.00;87.20
48994;DHT22;34804;49.214;12.276;2022-10-15T11:29:09;18.00;86.70
48994;DHT22;34804;49.214;12.276;2022-10-15T11:31:50;18.20;88.10
48994;DHT22;34804;49.214;12.276;2022-10-15T11:34:39;18.40;87.50
48994;DHT22;34804;49.214;12.276;2022-10-15T11:37:24;18.40;86.90
48994;DHT22;34804;49.214;12.276;2022-10-15T11:42:34;18.10;88.40
48994;DHT22;34804;49.214;12.276;2022-10-15T11:58:42;19.00;84.00
48994;DHT22;34804;49.214;12.276;2022-10-15T12:01:36;19.30;84.70
48994;DHT22;34804;49.214;12.276;2022-10-15T12:04:16;19.10;82.40
48994;DHT22;34804;49.214;12.276;2022-10-15T12:06:47;18.90;82.70
48994;DHT22;34804;49.214;12.276;2022-10-15T12:09:24;18.60;84.70
48994;DHT22;34804;49.214;12.276;2022-10-15T12:12:00;18.50;86.20
48994;DHT22;34804;49.214;12.276;2022-10-15T12:17:29;19.20;83.80
48994;DHT22;34804;49.214;12.276;2022-10-15T12:22:37;20.80;78.50
48994;DHT22;34804;49.214;12.276;2022-10-15T12:25:05;20.10;79.00
48994;DHT22;34804;49.214;12.276;2022-10-15T12:27:34;19.30;80.80
48994;DHT22;34804;49.214;12.276;2022-10-15T12:32:43;18.40;83.60
48994;DHT22;34804;49.214;12.276;2022-10-15T12:37:43;18.40;85.70
48994;DHT22;34804;49.214;12.276;2022-10-15T12:40:29;18.50;84.60
48994;DHT22;34804;49.214;12.276;2022-10-15T12:43:02;18.80;84.40
48994;DHT22;34804;49.214;12.276;2022-10-15T12:45:38;19.30;84.50
48994;DHT22;34804;49.214;12.276;2022-10-15T12:50:42;22.80;73.80
48994;DHT22;34804;49.214;12.276;2022-10-15T12:58:43;22.30;68.80
48994;DHT22;34804;49.214;12.276;2022-10-15T13:03:58;20.40;75.00
48994;DHT22;34804;49.214;12.276;2022-10-15T13:06:36;20.10;78.50
48994;DHT22;34804;49.214;12.276;2022-10-15T13:11:55;19.90;77.80
48994;DHT22;34804;49.214;12.276;2022-10-15T13:14:48;19.80;79.10
48994;DHT22;34804;49.214;12.276;2022-10-15T13:17:20;19.80;79.10
48994;DHT22;34804;49.214;12.276;2022-10-15T13:19:57;19.70;79.80
48994;DHT22;34804;49.214;12.276;2022-10-15T13:22:27;19.30;78.70
48994;DHT22;34804;49.214;12.276;2022-10-15T13:24:55;19.00;80.80
48994;DHT22;34804;49.214;12.276;2022-10-15T13:27:25;18.80;82.40
48994;DHT22;34804;49.214;12.276;2022-10-15T13:30:13;18.60;82.60
48994;DHT22;34804;49.214;12.276;2022-10-15T13:32:49;18.50;83.10
48994;DHT22;34804;49.214;12.276;2022-10-15T13:35:28;18.40;83.50
48994;DHT22;34804;49.214;12.276;2022-10-15T13:37:59;18.30;84.00
48994;DHT22;34804;49.214;12.276;2022-10-15T13:40:27;18.30;84.40
48994;DHT22;34804;49.214;12.276;2022-10-15T13:43:24;18.20;84.70
48994;DHT22;34804;49.214;12.276;2022-10-15T13:45:59;18.10;84.30
48994;DHT22;34804;49.214;12.276;2022-10-15T13:48:29;18.10;84.70
48994;DHT22;34804;49.214;12.276;2022-10-15T13:53:41;17.90;84.90
48994;DHT22;34804;49.214;12.276;2022-10-15T13:56:23;17.90;84.60
48994;DHT22;34804;49.214;12.276;2022-10-15T13:58:51;18.00;84.90
48994;DHT22;34804;49.214;12.276;2022-10-15T14:01:21;18.00;83.60
48994;DHT22;34804;49.214;12.276;2022-10-15T14:03:53;18.00;84.00
48994;DHT22;34804;49.214;12.276;2022-10-15T14:08:49;17.70;84.90
48994;DHT22;34804;49.214;12.276;2022-10-15T14:11:17;17.50;85.80
48994;DHT22;34804;49.214;12.276;2022-10-15T14:13:52;17.40;86.90
48994;DHT22;34804;49.214;12.276;2022-10-15T14:16:40;17.30;86.20
48994;DHT22;34804;49.214;12.276;2022-10-15T14:19:14;17.20;86.10
48994;DHT22;34804;49.214;12.276;2022-10-15T14:21:43;17.10;86.70
48994;DHT22;34804;49.214;12.276;2022-10-15T14:24:17;17.00;88.00
48994;DHT22;34804;49.214;12.276;2022-10-15T14:26:45;17.30;86.90
48994;DHT22;34804;49.214;12.276;2022-10-15T14:29:28;17.80;87.00
48994;DHT22;34804;49.214;12.276;2022-10-15T14:32:00;17.90;86.40
48994;DHT22;34804;49.214;12.276;2022-10-15T14:34:34;17.80;86.20
48994;DHT22;34804;49.214;12.276;2022-10-15T14:37:41;17.60;85.90
48994;DHT22;34804;49.214;12.276;2022-10-15T14:42:40;19.10;81.40
48994;DHT22;34804;49.214;12.276;2022-10-15T14:47:46;20.80;75.30
48994;DHT22;34804;49.214;12.276;2022-10-15T14:50:14;20.00;76.90
48994;DHT22;34804;49.214;12.276;2022-10-15T14:52:48;19.20;80.10
48994;DHT22;34804;49.214;12.276;2022-10-15T14:55:26;18.60;82.30
48994;DHT22;34804;49.214;12.276;2022-10-15T14:57:54;18.20;83.10
48994;DHT22;34804;49.214;12.276;2022-10-15T15:00:25;17.90;85.80
48994;DHT22;34804;49.214;12.276;2022-10-15T15:02:54;17.80;85.60
48994;DHT22;34804;49.214;12.276;2022-10-15T15:05:27;17.70;85.70
48994;DHT22;34804;49.214;12.276;2022-10-15T15:07:55;17.70;86.40
48994;DHT22;34804;49.214;12.276;2022-10-15T15:10:26;17.80;85.10
48994;DHT22;34804;49.214;12.276;2022-10-15T15:12:55;17.80;85.10
48994;DHT22;34804;49.214;12.276;2022-10-15T15:15:24;17.60;85.50
48994;DHT22;34804;49.214;12.276;2022-10-15T15:17:52;17.40;86.70
48994;DHT22;34804;49.214;12.276;2022-10-15T15:20:19;17.40;87.20
48994;DHT22;34804;49.214;12.276;2022-10-15T15:22:47;17.40;87.90
48994;DHT22;34804;49.214;12.276;2022-10-15T15:25:18;17.30;86.80
48994;DHT22;34804;49.214;12.276;2022-10-15T15:27:46;17.30;86.90
48994;DHT22;34804;49.214;12.276;2022-10-15T15:30:16;17.10;87.60
48994;DHT22;34804;49.214;12.276;2022-10-15T15:32:44;17.10;87.80
48994;DHT22;34804;49.214;12.276;2022-10-15T15:37:42;17.80;86.40
48994;DHT22;34804;49.214;12.276;2022-10-15T15:40:09;17.80;85.70
48994;DHT22;34804;49.214;12.276;2022-10-15T15:42:36;17.70;85.80
48994;DHT22;34804;49.214;12.276;2022-10-15T15:45:03;17.60;86.50
48994;DHT22;34804;49.214;12.276;2022-10-15T15:47:30;17.50;86.60
48994;DHT22;34804;49.214;12.276;2022-10-15T15:49:57;17.40;86.90
48994;DHT22;34804;49.214;12.276;2022-10-15T15:52:24;17.30;87.00
48994;DHT22;34804;49.214;12.276;2022-10-15T15:54:51;17.20;87.30
48994;DHT22;34804;49.214;12.276;2022-10-15T15:57:18;17.20;87.50
48994;DHT22;34804;49.214;12.276;2022-10-15T15:59:45;17.00;87.90
48994;DHT22;34804;49.214;12.276;2022-10-15T16:02:12;16.80;88.40
48994;DHT22;34804;49.214;12.276;2022-10-15T16:04:39;16.60;89.10
48994;DHT22;34804;49.214;12.276;2022-10-15T16:07:05;16.40;89.50
48994;DHT22;34804;49.214;12.276;2022-10-15T16:09:37;16.30;89.80
48994;DHT22;34804;49.214;12.276;2022-10-15T16:12:04;16.20;90.20
48994;DHT22;34804;49.214;12.276;2022-10-15T16:14:31;16.10;90.80
48994;DHT22;34804;49.214;12.276;2022-10-15T16:16:58;15.90;90.90
48994;DHT22;34804;49.214;12.276;2022-10-15T16:19:24;15.80;91.40
48994;DHT22;34804;49.214;12.276;2022-10-15T16:21:51;15.70;91.20
48994;DHT22;34804;49.214;12.276;2022-10-15T16:24:18;15.60;91.50
48994;DHT22;34804;49.214;12.276;2022-10-15T16:26:45;15.50;91.60
48994;DHT22;34804;49.214;12.276;2022-10-15T16:29:12;15.50;91.70
48994;DHT22;34804;49.214;12.276;2022-10-15T16:31:40;15.40;92.00
48994;DHT22;34804;49.214;12.276;2022-10-15T16:34:07;15.40;92.10
48994;DHT22;34804;49.214;12.276;2022-10-15T16:36:34;15.30;92.20
48994;DHT22;34804;49.214;12.276;2022-10-15T16:39:03;15.30;92.40
48994;DHT22;34804;49.214;12.276;2022-10-15T16:41:30;15.30;92.60
48994;DHT22;34804;49.214;12.276;2022-10-15T16:43:56;15.20;92.80
48994;DHT22;34804;49.214;12.276;2022-10-15T16:46:24;15.20;92.90
48994;DHT22;34804;49.214;12.276;2022-10-15T16:48:52;15.20;92.90
48994;DHT22;34804;49.214;12.276;2022-10-15T16:51:21;15.20;93.40
48994;DHT22;34804;49.214;12.276;2022-10-15T16:53:49;15.10;93.50
48994;DHT22;34804;49.214;12.276;2022-10-15T16:58:46;15.10;93.50
48994;DHT22;34804;49.214;12.276;2022-10-15T17:01:15;15.00;93.50
48994;DHT22;34804;49.214;12.276;2022-10-15T17:03:43;15.00;93.40
48994;DHT22;34804;49.214;12.276;2022-10-15T17:06:16;14.90;93.50
48994;DHT22;34804;49.214;12.276;2022-10-15T17:08:49;14.90;93.60
48994;DHT22;34804;49.214;12.276;2022-10-15T17:11:17;14.90;93.60
48994;DHT22;34804;49.214;12.276;2022-10-15T17:13:45;14.90;93.90
48994;DHT22;34804;49.214;12.276;2022-10-15T17:16:17;14.80;93.90
48994;DHT22;34804;49.214;12.276;2022-10-15T17:18:44;14.80;94.00
48994;DHT22;34804;49.214;12.276;2022-10-15T17:21:15;14.80;93.90
48994;DHT22;34804;49.214;12.276;2022-10-15T17:23:42;14.80;94.00
48994;DHT22;34804;49.214;12.276;2022-10-15T17:26:14;14.80;94.10
48994;DHT22;34804;49.214;12.276;2022-10-15T17:28:43;14.90;94.10
48994;DHT22;34804;49.214;12.276;2022-10-15T17:31:15;14.80;94.20
48994;DHT22;34804;49.214;12.276;2022-10-15T17:33:43;14.80;94.20
48994;DHT22;34804;49.214;12.276;2022-10-15T17:36:16;14.80;94.30
48994;DHT22;34804;49.214;12.276;2022-10-15T17:38:43;14.90;94.50
48994;DHT22;34804;49.214;12.276;2022-10-15T17:41:11;14.90;94.40
48994;DHT22;34804;49.214;12.276;2022-10-15T17:43:39;14.90;94.40
48994;DHT22;34804;49.214;12.276;2022-10-15T17:46:13;15.00;94.40
48994;DHT22;34804;49.214;12.276;2022-10-15T17:48:41;14.90;94.30